Time;durP1;ratioP1;P1;durP2;ratioP2;P2;SDS_P1;SDS_P2;PMS_P1;PMS_P2;Temp;Humidity;BMP_temperature;BMP_pressure;BME280_temperature;BME280_humidity;BME280_pressure;Samples;Min_cycle;Max_cycle;Signal;HPM_P1;HPM_P2
2023/03/04 00:00:52;;;;;;;90.03;75.00;;;;;;;3.46;83.72;96067.50;5041816;28;20021;-65
2023/03/04 00:03:18;;;;;;;95.75;75.95;;;;;;;3.62;83.08;96064.84;5040842;28;20025;-64
2023/03/04 00:05:43;;;;;;;88.68;74.72;;;;;;;3.72;82.68;96063.34;5036182;28;20061;-64
2023/03/04 00:08:09;;;;;;;100.45;78.45;;;;;;;3.60;83.01;96071.91;5045927;28;20025;-65
2023/03/04 00:10:34;;;;;;;96.93;78.32;;;;;;;3.30;84.93;96068.38;5045572;28;20029;-62
2023/03/04 00:12:59;;;;;;;95.18;78.35;;;;;;;3.25;85.41;96060.00;5052765;28;20021;-64
2023/03/04 00:15:25;;;;;;;94.35;78.22;;;;;;;3.17;86.04;96067.38;5044176;28;20555;-64
2023/03/04 00:17:50;;;;;;;111.70;86.18;;;;;;;3.26;85.36;96067.69;5050456;28;20466;-63
2023/03/04 00:20:16;;;;;;;105.95;84.03;;;;;;;3.12;86.62;96059.84;5037343;28;20496;-63
2023/03/04 00:22:41;;;;;;;109.80;84.13;;;;;;;3.07;86.67;96059.25;5054362;28;20024;-63
2023/03/04 00:25:06;;;;;;;106.15;83.85;;;;;;;3.06;86.91;96055.84;5042048;28;20037;-63
2023/03/04 00:27:32;;;;;;;104.95;81.80;;;;;;;3.05;86.84;96069.78;5046948;28;20047;-64
2023/03/04 00:29:57;;;;;;;99.25;81.13;;;;;;;3.10;86.31;96065.13;5047917;28;20104;-60
2023/03/04 00:32:22;;;;;;;98.10;78.05;;;;;;;3.22;86.58;96060.19;5050494;28;20119;-65
2023/03/04 00:34:48;;;;;;;93.72;78.00;;;;;;;3.22;85.96;96060.19;5042946;28;20111;-65
2023/03/04 00:37:13;;;;;;;96.68;79.47;;;;;;;3.06;87.07;96055.84;5049859;28;20450;-65
2023/03/04 00:39:39;;;;;;;96.63;79.93;;;;;;;3.06;87.12;96061.03;5041098;28;20060;-65
2023/03/04 00:42:04;;;;;;;99.55;79.90;;;;;;;3.06;87.58;96061.03;5053635;28;20078;-64
2023/03/04 00:44:30;;;;;;;97.40;76.80;;;;;;;3.07;87.68;96056.66;5046752;28;20028;-65
2023/03/04 00:46:55;;;;;;;105.88;82.30;;;;;;;3.06;87.76;96055.84;5039494;28;20120;-65
2023/03/04 00:49:20;;;;;;;99.20;79.93;;;;;;;3.01;88.92;96058.69;5044077;28;20103;-64
2023/03/04 00:51:46;;;;;;;102.72;81.13;;;;;;;2.98;89.09;96060.59;5040520;28;20112;-65
2023/03/04 00:54:12;;;;;;;113.45;86.35;;;;;;;2.95;89.61;96059.03;5048104;28;20148;-65
2023/03/04 00:56:37;;;;;;;116.50;88.28;;;;;;;2.96;89.45;96062.47;5040968;28;20131;-65
2023/03/04 00:59:02;;;;;;;107.38;86.47;;;;;;;2.98;89.07;96060.59;5051368;28;20033;-65
2023/03/04 01:01:28;;;;;;;103.57;82.45;;;;;;;2.97;88.84;96066.75;5047457;28;20029;-65
2023/03/04 01:03:53;;;;;;;96.43;79.60;;;;;;;2.98;89.55;96063.22;5045643;28;20051;-65
2023/03/04 01:06:18;;;;;;;103.90;81.10;;;;;;;2.96;89.83;96067.66;5049502;28;20033;-65
2023/03/04 01:08:44;;;;;;;97.20;79.90;;;;;;;2.94;90.15;96064.31;5042745;28;20025;-59
2023/03/04 01:11:09;;;;;;;95.72;76.85;;;;;;;2.96;89.50;96068.50;5047202;28;20018;-63
2023/03/04 01:13:35;;;;;;;92.53;77.30;;;;;;;2.95;90.08;96063.38;5040042;28;20446;-63
2023/03/04 01:16:02;;;;;;;92.47;78.53;;;;;;;2.98;88.87;96058.00;5039450;28;20114;-63
2023/03/04 01:18:27;;;;;;;100.63;81.28;;;;;;;2.99;90.02;96057.13;5045793;28;20025;-63
2023/03/04 01:20:53;;;;;;;98.13;82.47;;;;;;;2.97;90.56;96051.13;5045176;28;20032;-63
2023/03/04 01:23:18;;;;;;;101.55;80.43;;;;;;;2.95;90.49;96063.38;5041337;28;20031;-63
2023/03/04 01:25:44;;;;;;;97.78;78.70;;;;;;;2.96;90.64;96059.84;5043059;28;20441;-66
2023/03/04 01:28:10;;;;;;;98.90;77.93;;;;;;;2.96;89.83;96052.91;5039752;28;20412;-65
2023/03/04 01:30:35;;;;;;;101.07;79.95;;;;;;;2.95;89.29;96048.63;5039404;28;20123;-66
2023/03/04 01:33:01;;;;;;;91.53;75.10;;;;;;;2.98;89.00;96052.81;5027679;28;20767;-66
2023/03/04 01:35:26;;;;;;;93.90;74.95;;;;;;;2.96;88.68;96049.47;5032291;28;20033;-66
2023/03/04 01:37:52;;;;;;;102.45;79.53;;;;;;;2.95;88.85;96045.19;5047566;28;20031;-65
2023/03/04 01:40:17;;;;;;;98.07;79.53;;;;;;;2.97;89.53;96044.19;5023841;28;20743;-66
2023/03/04 01:42:44;;;;;;;97.50;79.05;;;;;;;2.99;89.08;96050.13;5048666;28;20033;-66
2023/03/04 01:45:14;;;;;;;95.47;77.28;;;;;;;2.96;89.77;96041.66;5027341;28;20041;-62
2023/03/04 01:47:42;;;;;;;92.60;73.57;;;;;;;2.96;88.85;96037.31;5053056;28;20053;-65
2023/03/04 01:50:26;;;;;;;94.63;75.93;;;;;;;3.01;88.13;96040.47;5043834;28;20072;-65
2023/03/04 01:52:51;;;;;;;91.97;74.10;;;;;;;3.04;88.31;96041.22;5047163;28;20391;-65
2023/03/04 01:55:20;;;;;;;101.38;78.30;;;;;;;2.98;89.18;96037.19;5042263;28;20055;-65
2023/03/04 01:57:47;;;;;;;90.50;75.15;;;;;;;2.93;89.43;96034.03;5046955;28;20068;-65
2023/03/04 02:00:26;;;;;;;86.63;74.13;;;;;;;2.93;89.79;96034.03;5039344;28;20554;-64
2023/03/04 02:02:56;;;;;;;90.90;73.55;;;;;;;2.94;89.41;96038.31;5051706;28;20442;-69
2023/03/04 02:05:23;;;;;;;92.90;74.55;;;;;;;2.89;90.36;96033.38;5049831;28;20530;-63
2023/03/04 02:07:50;;;;;;;95.45;76.05;;;;;;;2.85;90.23;96032.72;5044716;28;20113;-56
2023/03/04 02:10:16;;;;;;;94.65;74.07;;;;;;;2.85;89.52;96032.72;5053845;28;20113;-57
2023/03/04 02:12:41;;;;;;;92.88;74.53;;;;;;;2.85;90.14;96030.09;5039897;28;20104;-56
2023/03/04 02:15:07;;;;;;;94.03;76.75;;;;;;;2.83;90.01;96029.34;5040020;28;20037;-57
2023/03/04 02:17:33;;;;;;;91.45;76.20;;;;;;;2.84;90.66;96018.03;5043291;28;20033;-57
2023/03/04 02:20:06;;;;;;;95.10;75.80;;;;;;;2.83;90.07;96020.69;5041373;28;20078;-56
2023/03/04 02:22:37;;;;;;;99.22;80.05;;;;;;;2.89;89.80;96022.13;5039458;28;20017;-63
2023/03/04 02:25:09;;;;;;;100.78;80.85;;;;;;;2.85;90.32;96016.25;5039057;28;20025;-59
2023/03/04 02:27:35;;;;;;;102.45;79.35;;;;;;;2.83;91.06;96016.34;5051565;28;20055;-66
2023/03/04 02:30:01;;;;;;;92.72;77.65;;;;;;;2.83;91.01;96013.75;5045857;28;20017;-66
2023/03/04 02:32:26;;;;;;;102.68;80.10;;;;;;;2.81;91.49;96009.56;5046365;28;20024;-66
2023/03/04 02:34:51;;;;;;;95.95;76.72;;;;;;;2.81;89.79;96013.00;5045012;28;20501;-66
2023/03/04 02:37:18;;;;;;;99.57;79.75;;;;;;;2.89;89.50;96009.97;5046261;28;20035;-65
2023/03/04 02:39:46;;;;;;;98.05;78.20;;;;;;;2.91;89.58;96015.06;5047331;28;20057;-66
2023/03/04 02:42:12;;;;;;;100.68;79.28;;;;;;;2.90;89.06;96003.84;5050381;28;20359;-58
2023/03/04 02:44:40;;;;;;;91.80;74.75;;;;;;;2.90;89.66;96005.59;5041113;28;20087;-58
2023/03/04 02:47:08;;;;;;;96.65;74.35;;;;;;;2.86;89.94;96008.38;5043118;28;20537;-63
2023/03/04 02:49:36;;;;;;;92.20;76.32;;;;;;;2.87;89.38;96004.00;5041456;28;20033;-62
2023/03/04 02:52:05;;;;;;;98.20;77.18;;;;;;;2.88;89.38;96004.84;5053518;28;20043;-63
2023/03/04 02:54:31;;;;;;;91.85;75.13;;;;;;;2.89;89.32;96002.16;5040258;28;20068;-62
2023/03/04 02:56:59;;;;;;;84.15;72.13;;;;;;;2.92;89.12;96002.00;5037517;28;20073;-61
2023/03/04 02:59:25;;;;;;;93.18;78.15;;;;;;;2.93;88.96;96000.22;5043552;28;20029;-62
2023/03/04 03:01:50;;;;;;;93.63;74.38;;;;;;;2.91;89.35;96002.06;5042954;28;20136;-62
2023/03/04 03:04:16;;;;;;;96.57;77.60;;;;;;;2.89;89.85;96001.31;5042696;28;20079;-64
2023/03/04 03:06:42;;;;;;;93.65;74.22;;;;;;;2.91;89.48;96007.28;5048601;28;20033;-62
2023/03/04 03:09:08;;;;;;;94.60;75.45;;;;;;;2.88;89.98;96005.69;5035752;28;20075;-62
2023/03/04 03:11:33;;;;;;;98.80;77.20;;;;;;;2.85;91.77;96009.31;5038142;28;20591;-62
2023/03/04 03:13:59;;;;;;;100.72;80.47;;;;;;;2.83;91.95;96003.34;5033391;28;20412;-62
2023/03/04 03:16:24;;;;;;;92.32;75.47;;;;;;;2.83;92.62;95998.16;5038149;28;20033;-62
2023/03/04 03:18:50;;;;;;;100.10;76.63;;;;;;;2.86;91.99;96008.38;5050853;28;20029;-62
2023/03/04 03:21:15;;;;;;;90.15;75.22;;;;;;;2.86;92.00;96000.56;5045532;28;20044;-58
2023/03/04 03:23:42;;;;;;;95.88;76.18;;;;;;;2.81;91.86;96005.19;5039640;28;20454;-65
2023/03/04 03:26:07;;;;;;;91.18;75.95;;;;;;;2.79;93.04;95999.25;5042767;28;20060;-56
2023/03/04 03:28:33;;;;;;;89.90;73.63;;;;;;;2.79;92.87;95999.25;5019960;28;20482;-58
2023/03/04 03:30:58;;;;;;;95.97;76.97;;;;;;;2.78;93.16;95994.13;5037231;28;20056;-58
2023/03/04 03:33:24;;;;;;;93.00;76.45;;;;;;;2.78;93.25;95999.31;5043294;28;20441;-58
2023/03/04 03:35:49;;;;;;;90.07;75.18;;;;;;;2.83;92.54;96003.34;5036745;28;20658;-57
2023/03/04 03:38:14;;;;;;;93.90;75.03;;;;;;;2.80;94.06;95998.31;5034606;28;20021;-58
2023/03/04 03:40:40;;;;;;;89.78;74.18;;;;;;;2.79;94.55;95995.81;5030892;28;20029;-64
2023/03/04 03:43:05;;;;;;;90.07;73.70;;;;;;;2.81;94.88;96002.59;5041714;28;20052;-64
2023/03/04 03:45:31;;;;;;;94.38;74.05;;;;;;;2.79;95.87;95998.41;5046098;28;20044;-61
2023/03/04 03:47:56;;;;;;;89.32;73.68;;;;;;;2.78;95.34;96000.19;5043956;28;20056;-61
2023/03/04 03:50:21;;;;;;;89.13;73.35;;;;;;;2.79;94.53;96001.84;5041102;28;20505;-62
2023/03/04 03:52:47;;;;;;;94.55;74.97;;;;;;;2.79;94.35;95993.19;5035614;28;20443;-62
2023/03/04 03:55:12;;;;;;;89.18;74.78;;;;;;;2.80;93.69;96000.94;5033743;28;20033;-62
2023/03/04 03:57:38;;;;;;;93.15;73.80;;;;;;;2.84;93.69;96010.22;5041281;28;20045;-62
2023/03/04 04:00:05;;;;;;;97.85;76.55;;;;;;;2.86;92.98;96003.16;5038488;28;20040;-65
2023/03/04 04:02:30;;;;;;;96.32;75.25;;;;;;;2.88;92.36;95999.66;5034326;28;20029;-55
2023/03/04 04:04:55;;;;;;;95.38;75.22;;;;;;;2.89;92.66;96009.13;5037988;28;20087;-62
2023/03/04 04:07:21;;;;;;;92.45;73.95;;;;;;;2.89;92.65;96009.97;5032548;28;20030;-62
2023/03/04 04:09:47;;;;;;;90.03;72.68;;;;;;;2.84;93.61;96007.63;5036382;28;20134;-62
2023/03/04 04:12:14;;;;;;;88.93;73.22;;;;;;;2.81;93.65;96006.94;5032667;28;20086;-62
2023/03/04 04:14:40;;;;;;;88.45;73.30;;;;;;;2.75;94.28;96005.53;5037336;28;20041;-62
2023/03/04 04:17:05;;;;;;;89.40;72.80;;;;;;;2.72;94.59;96005.69;5027395;28;20028;-62
2023/03/04 04:19:30;;;;;;;92.60;76.70;;;;;;;2.78;93.44;96009.72;5044084;28;20029;-68
2023/03/04 04:21:56;;;;;;;96.57;75.68;;;;;;;2.77;93.45;96003.69;5041375;28;20036;-58
2023/03/04 04:24:21;;;;;;;88.80;74.97;;;;;;;2.81;93.24;96005.19;5044069;28;20037;-58
2023/03/04 04:26:46;;;;;;;99.40;77.10;;;;;;;2.74;94.29;96001.25;5043159;28;20079;-59
2023/03/04 04:29:13;;;;;;;88.63;73.78;;;;;;;2.74;94.38;96000.44;5041955;28;20087;-58
2023/03/04 04:31:39;;;;;;;93.43;74.30;;;;;;;2.75;93.96;96000.31;5044331;28;20495;-59
2023/03/04 04:34:04;;;;;;;91.28;72.57;;;;;;;2.80;93.57;96006.13;5043253;28;20037;-58
2023/03/04 04:36:30;;;;;;;95.60;72.82;;;;;;;2.78;93.64;96004.53;5045637;28;20609;-58
2023/03/04 04:38:56;;;;;;;85.65;72.40;;;;;;;2.77;94.44;96003.69;5043532;28;20052;-64
2023/03/04 04:41:26;;;;;;;89.15;74.35;;;;;;;2.75;94.14;96000.31;5043173;28;20518;-56
2023/03/04 04:43:51;;;;;;;89.57;76.43;;;;;;;2.76;94.09;96007.19;5045771;28;20028;-64
2023/03/04 04:46:17;;;;;;;94.00;75.20;;;;;;;2.77;94.01;96005.44;5037662;28;20403;-64
2023/03/04 04:48:43;;;;;;;90.72;72.13;;;;;;;2.83;93.47;96013.75;5044860;28;20028;-64
2023/03/04 04:51:08;;;;;;;89.18;71.80;;;;;;;2.82;93.52;96009.47;5044763;28;20483;-64
2023/03/04 04:53:34;;;;;;;90.20;71.43;;;;;;;2.76;93.62;96003.78;5019649;28;20059;-63
2023/03/04 04:55:59;;;;;;;94.18;72.72;;;;;;;2.73;93.90;96012.56;5042455;28;20049;-64
2023/03/04 04:58:25;;;;;;;88.65;73.57;;;;;;;2.69;94.49;96014.53;5043465;28;20029;-65
2023/03/04 05:00:50;;;;;;;92.38;74.05;;;;;;;2.67;94.66;96016.38;5039949;28;20113;-56
2023/03/04 05:03:16;;;;;;;98.53;80.82;;;;;;;2.67;94.55;96018.97;5036428;28;20116;-63
2023/03/04 05:05:41;;;;;;;89.50;74.78;;;;;;;2.66;94.92;96011.25;5045908;28;20078;-64
2023/03/04 05:08:07;;;;;;;91.72;72.43;;;;;;;2.67;94.90;96013.78;5041073;28;20060;-64
2023/03/04 05:10:32;;;;;;;92.10;72.55;;;;;;;2.71;94.55;96019.63;5029439;28;20036;-64
2023/03/04 05:12:58;;;;;;;90.45;72.65;;;;;;;2.71;94.77;96017.88;5038519;28;20033;-62
2023/03/04 05:15:23;;;;;;;89.55;74.15;;;;;;;2.70;95.52;96010.16;5036333;28;20043;-64
2023/03/04 05:17:49;;;;;;;94.47;72.13;;;;;;;2.70;95.53;96010.16;5041943;28;20549;-65
2023/03/04 05:20:17;;;;;;;96.55;76.63;;;;;;;2.64;96.14;96016.53;5045492;28;20458;-68
2023/03/04 05:22:42;;;;;;;93.85;76.88;;;;;;;2.61;96.08;96010.69;5046294;28;20119;-63
2023/03/04 05:25:08;;;;;;;104.75;81.22;;;;;;;2.65;95.36;96018.22;5040403;28;20029;-63
2023/03/04 05:27:33;;;;;;;99.78;81.85;;;;;;;2.66;95.01;96009.50;5047318;28;20111;-63
2023/03/04 05:29:59;;;;;;;96.20;73.97;;;;;;;2.67;95.40;96007.72;5037600;28;20021;-62
2023/03/04 05:32:24;;;;;;;84.95;69.75;;;;;;;2.69;94.82;96016.28;5046974;28;20031;-63
2023/03/04 05:34:49;;;;;;;89.88;73.13;;;;;;;2.66;95.22;96013.84;5038599;28;20398;-64
2023/03/04 05:37:15;;;;;;;91.47;73.88;;;;;;;2.66;94.90;96013.84;5046087;28;20071;-63
2023/03/04 05:39:40;;;;;;;110.88;85.75;;;;;;;2.65;93.56;96009.56;5041003;28;20026;-63
2023/03/04 05:42:05;;;;;;;96.03;75.22;;;;;;;2.67;93.59;96018.13;5057918;28;20126;-66
2023/03/04 05:44:31;;;;;;;99.38;76.20;;;;;;;2.73;93.04;96015.19;5043911;28;20163;-65
2023/03/04 05:46:56;;;;;;;92.53;75.82;;;;;;;2.73;93.14;96020.38;5042667;28;20025;-67
2023/03/04 05:49:21;;;;;;;90.18;73.63;;;;;;;2.71;92.96;96014.44;5034022;28;20075;-66
2023/03/04 05:51:47;;;;;;;89.78;72.30;;;;;;;2.66;93.50;96019.06;5049195;28;20032;-66
2023/03/04 05:54:12;;;;;;;96.28;77.40;;;;;;;2.62;93.84;96025.34;5040032;28;20031;-66
2023/03/04 05:56:37;;;;;;;89.88;73.43;;;;;;;2.58;94.89;96022.06;5043356;28;20097;-65
2023/03/04 05:59:03;;;;;;;90.25;72.90;;;;;;;2.58;94.75;96020.31;5046581;28;20438;-66
2023/03/04 06:01:30;;;;;;;104.13;81.28;;;;;;;2.60;94.02;96022.00;5033565;28;20033;-70
2023/03/04 06:03:55;;;;;;;107.95;85.80;;;;;;;2.63;94.14;96014.03;5040993;28;20025;-71
2023/03/04 06:06:21;;;;;;;148.73;112.03;;;;;;;2.66;93.32;96022.50;5040429;28;20107;-70
2023/03/04 06:08:47;;;;;;;151.82;111.78;;;;;;;2.66;93.25;96021.66;5039093;28;20437;-70
2023/03/04 06:11:12;;;;;;;111.28;92.10;;;;;;;2.66;93.21;96032.06;5046409;28;20025;-70
2023/03/04 06:13:39;;;;;;;98.20;79.30;;;;;;;2.66;92.19;96026.84;5041495;28;20029;-69
2023/03/04 06:16:04;;;;;;;95.35;76.88;;;;;;;2.67;92.56;96034.56;5036127;28;20494;-67
2023/03/04 06:18:29;;;;;;;99.55;75.32;;;;;;;2.66;93.19;96034.66;5050978;28;20040;-60
2023/03/04 06:21:00;;;;;;;94.40;73.68;;;;;;;2.64;95.12;96032.13;5041727;28;20049;-63
2023/03/04 06:23:26;;;;;;;94.18;73.53;;;;;;;2.66;94.70;96027.69;5046030;28;20029;-64
2023/03/04 06:25:56;;;;;;;95.53;75.00;;;;;;;2.65;95.27;96035.56;5044393;28;20032;-64
2023/03/04 06:28:22;;;;;;;88.82;72.47;;;;;;;2.61;95.23;96036.66;5043136;28;20048;-64
2023/03/04 06:30:47;;;;;;;91.95;73.25;;;;;;;2.62;95.60;96046.16;5056574;28;20020;-63
2023/03/04 06:33:12;;;;;;;88.40;72.28;;;;;;;2.62;95.37;96046.16;5045941;28;20078;-64
2023/03/04 06:35:38;;;;;;;95.22;75.90;;;;;;;2.63;95.24;96047.81;5044167;28;20060;-63
2023/03/04 06:38:03;;;;;;;99.80;76.63;;;;;;;2.62;95.85;96046.97;5048582;28;20032;-60
2023/03/04 06:40:29;;;;;;;92.90;75.35;;;;;;;2.60;95.53;96042.78;5044764;28;20082;-68
2023/03/04 06:42:54;;;;;;;97.00;78.65;;;;;;;2.58;95.98;96048.06;5047060;28;20024;-67
2023/03/04 06:45:19;;;;;;;92.90;76.25;;;;;;;2.63;95.46;96040.84;5046675;28;20026;-67
2023/03/04 06:47:45;;;;;;;97.72;76.35;;;;;;;2.65;94.88;96046.81;5044573;28;20131;-66
2023/03/04 06:50:11;;;;;;;101.93;78.93;;;;;;;2.69;94.50;96050.06;5040961;28;20025;-67
2023/03/04 06:52:37;;;;;;;98.72;80.50;;;;;;;2.70;94.39;96049.16;5044168;28;20054;-68
2023/03/04 06:55:03;;;;;;;106.57;83.07;;;;;;;2.70;94.81;96051.75;5048439;28;20064;-59
2023/03/04 06:57:29;;;;;;;95.30;75.60;;;;;;;2.74;94.59;96058.44;5042061;28;20048;-64
2023/03/04 06:59:54;;;;;;;94.28;74.00;;;;;;;2.75;94.17;96057.53;5042101;28;20041;-65
2023/03/04 07:02:19;;;;;;;92.45;75.55;;;;;;;2.81;93.46;96064.16;5026579;28;20028;-65
2023/03/04 07:04:45;;;;;;;91.57;73.50;;;;;;;2.83;93.11;96065.75;5045880;28;20025;-65
2023/03/04 07:07:10;;;;;;;87.88;70.43;;;;;;;2.86;92.18;96065.59;5037526;28;20515;-65
2023/03/04 07:09:36;;;;;;;91.80;72.80;;;;;;;2.87;92.25;96061.22;5034207;28;20025;-65
2023/03/04 07:12:02;;;;;;;89.38;73.43;;;;;;;2.90;91.73;96065.41;5032976;28;20168;-65
2023/03/04 07:14:27;;;;;;;83.28;69.97;;;;;;;2.92;91.56;96073.97;5035043;28;20040;-66
2023/03/04 07:16:52;;;;;;;88.05;71.15;;;;;;;2.96;90.90;96067.66;5035792;28;20551;-61
2023/03/04 07:19:18;;;;;;;89.35;68.78;;;;;;;3.00;90.08;96071.78;5047111;28;20083;-59
2023/03/04 07:21:43;;;;;;;88.57;71.20;;;;;;;3.00;90.09;96067.41;5040495;28;20029;-59
2023/03/04 07:24:08;;;;;;;85.78;68.60;;;;;;;3.03;90.90;96073.38;5037038;28;20036;-59
2023/03/04 07:26:34;;;;;;;87.88;71.78;;;;;;;3.07;90.40;96075.72;5052755;28;20107;-60
2023/03/04 07:28:59;;;;;;;111.20;83.53;;;;;;;3.10;90.23;96075.53;5051738;28;20059;-57
2023/03/04 07:31:30;;;;;;;96.57;74.57;;;;;;;3.09;90.46;96063.47;5039717;28;20025;-59
2023/03/04 07:33:58;;;;;;;90.93;70.85;;;;;;;3.13;90.71;96077.16;5048571;28;20083;-65
2023/03/04 07:36:24;;;;;;;89.43;73.47;;;;;;;3.15;90.37;96076.13;5046255;28;20402;-68
2023/03/04 07:38:50;;;;;;;99.03;76.50;;;;;;;3.15;91.19;96080.50;5057334;28;20036;-65
2023/03/04 07:41:17;;;;;;;94.47;72.97;;;;;;;3.14;91.60;96076.22;5047079;28;20406;-67
2023/03/04 07:43:43;;;;;;;88.40;72.32;;;;;;;3.15;91.54;96080.50;5045960;28;20056;-64
2023/03/04 07:46:09;;;;;;;80.95;66.15;;;;;;;3.23;90.61;96096.50;5046066;28;20078;-65
2023/03/04 07:48:34;;;;;;;85.50;68.40;;;;;;;3.22;90.28;96091.41;5046386;28;20025;-66
2023/03/04 07:51:08;;;;;;;82.32;64.47;;;;;;;3.20;89.06;96088.88;5049642;28;20062;-64
2023/03/04 07:53:35;;;;;;;74.80;60.50;;;;;;;3.19;87.58;96089.81;5058019;28;20498;-59
2023/03/04 07:56:00;;;;;;;73.60;58.42;;;;;;;3.24;86.86;96084.34;5031559;28;20505;-62
2023/03/04 07:58:26;;;;;;;71.28;56.97;;;;;;;3.27;85.63;96094.56;5049710;28;20056;-62
2023/03/04 08:00:51;;;;;;;70.45;54.72;;;;;;;3.29;84.81;96097.94;5049736;28;20024;-64
2023/03/04 08:03:16;;;;;;;67.55;54.55;;;;;;;3.35;84.27;96094.97;5035609;28;20648;-65
2023/03/04 08:05:42;;;;;;;68.18;54.08;;;;;;;3.38;83.40;96100.00;5048732;28;20029;-63
2023/03/04 08:08:08;;;;;;;61.65;50.75;;;;;;;3.40;82.97;96098.13;5033481;28;20417;-63
2023/03/04 08:10:33;;;;;;;66.10;51.92;;;;;;;3.41;83.38;96097.22;5029465;28;20111;-64
2023/03/04 08:12:58;;;;;;;63.67;52.25;;;;;;;3.44;82.80;96106.63;5038575;28;20026;-64
2023/03/04 08:15:26;;;;;;;65.07;50.20;;;;;;;3.48;82.28;96096.88;5049313;28;20013;-59
2023/03/04 08:17:51;;;;;;;64.10;50.97;;;;;;;3.51;81.95;96102.72;5027776;28;20033;-60
2023/03/04 08:20:17;;;;;;;62.53;51.42;;;;;;;3.53;82.61;96107.88;5045843;28;20071;-60
2023/03/04 08:22:42;;;;;;;63.65;52.80;;;;;;;3.56;82.92;96105.94;5047162;28;20025;-60
2023/03/04 08:25:08;;;;;;;65.10;51.95;;;;;;;3.60;82.91;96103.16;5046804;28;20514;-60
2023/03/04 08:27:33;;;;;;;69.13;54.10;;;;;;;3.64;82.52;96107.25;5047449;28;20028;-58
2023/03/04 08:29:58;;;;;;;69.20;55.80;;;;;;;3.65;82.53;96108.91;5046861;28;20021;-65
2023/03/04 08:32:24;;;;;;;67.35;53.95;;;;;;;3.63;80.67;96109.00;5042123;28;20026;-64
2023/03/04 08:34:49;;;;;;;65.55;53.90;;;;;;;3.65;81.81;96106.31;5038687;28;20040;-65
2023/03/04 08:37:14;;;;;;;69.55;54.78;;;;;;;3.70;81.48;96112.94;5042966;28;20024;-64
2023/03/04 08:39:40;;;;;;;68.88;54.22;;;;;;;3.79;81.40;96115.94;5035953;28;20029;-65
2023/03/04 08:42:05;;;;;;;77.65;61.30;;;;;;;3.84;82.56;96114.72;5048604;28;20020;-64
2023/03/04 08:44:30;;;;;;;81.20;64.63;;;;;;;3.85;83.12;96120.75;5037652;28;20029;-63
2023/03/04 08:46:56;;;;;;;76.97;61.03;;;;;;;3.88;82.93;96120.63;5046199;28;20032;-65
2023/03/04 08:49:21;;;;;;;74.88;61.95;;;;;;;3.84;83.16;96119.09;5048717;28;20016;-65
2023/03/04 08:51:47;;;;;;;133.43;97.50;;;;;;;4.01;83.26;96116.34;5064631;28;20111;-59
2023/03/04 08:54:12;;;;;;;125.45;88.95;;;;;;;3.96;83.87;96123.59;5045301;28;20149;-59
2023/03/04 08:56:39;;;;;;;101.68;78.47;;;;;;;3.96;83.93;96125.34;5039064;28;20202;-60
2023/03/04 08:59:04;;;;;;;103.90;75.70;;;;;;;3.97;83.24;96127.88;5048870;28;20491;-60
2023/03/04 09:01:29;;;;;;;98.90;71.25;;;;;;;3.90;82.94;96125.72;5047830;28;20114;-60
2023/03/04 09:03:55;;;;;;;80.32;63.85;;;;;;;3.85;82.87;96129.44;5048074;28;20049;-60
2023/03/04 09:06:20;;;;;;;76.72;62.38;;;;;;;3.86;82.10;96132.88;5047944;28;20039;-61
2023/03/04 09:08:45;;;;;;;79.97;66.22;;;;;;;3.98;82.20;96133.94;5048928;28;20037;-66
2023/03/04 09:11:11;;;;;;;78.97;62.92;;;;;;;4.06;82.18;96133.47;5048066;28;20021;-67
2023/03/04 09:13:37;;;;;;;72.18;58.47;;;;;;;4.15;80.99;96128.53;5022782;28;20086;-60
2023/03/04 09:16:07;;;;;;;84.65;63.63;;;;;;;4.23;81.45;96128.09;5042276;28;20028;-61
2023/03/04 09:18:32;;;;;;;100.10;71.78;;;;;;;4.24;81.46;96126.34;5041101;28;20025;-60
2023/03/04 09:20:58;;;;;;;84.07;65.03;;;;;;;4.21;81.46;96132.56;5043122;28;20028;-61
2023/03/04 09:23:23;;;;;;;70.90;55.55;;;;;;;4.14;80.67;96128.66;5040685;28;20041;-60
2023/03/04 09:25:48;;;;;;;62.00;50.10;;;;;;;4.14;80.16;96126.03;5035269;28;20104;-61
2023/03/04 09:28:16;;;;;;;70.80;55.63;;;;;;;4.16;79.59;96124.19;5035896;28;20052;-66
2023/03/04 09:30:42;;;;;;;97.30;78.72;;;;;;;4.21;80.02;96132.56;5035899;28;20044;-67
2023/03/04 09:33:08;;;;;;;78.32;64.85;;;;;;;4.27;78.96;96126.97;5038632;28;20029;-65
2023/03/04 09:35:33;;;;;;;76.60;62.80;;;;;;;4.38;79.74;96128.94;5031606;28;20116;-66
2023/03/04 09:37:59;;;;;;;77.20;62.08;;;;;;;4.38;79.84;96121.09;5036797;28;20040;-64
2023/03/04 09:40:32;;;;;;;77.53;61.33;;;;;;;4.46;78.72;96127.66;5039555;28;20037;-65
2023/03/04 09:43:04;;;;;;;85.38;65.38;;;;;;;4.44;78.41;96127.72;5036920;28;20078;-64
2023/03/04 09:45:45;;;;;;;85.78;71.30;;;;;;;4.65;79.75;96129.94;5036179;28;20027;-62
2023/03/04 09:48:19;;;;;;;92.85;71.75;;;;;;;4.66;79.63;96134.22;5040062;28;20107;-65
2023/03/04 09:51:07;;;;;;;89.72;70.60;;;;;;;4.63;79.42;96135.25;5032943;28;20078;-62
2023/03/04 09:53:45;;;;;;;92.75;71.97;;;;;;;4.63;79.28;96135.25;5040088;28;20692;-62
2023/03/04 09:56:12;;;;;;;84.65;68.43;;;;;;;4.63;79.09;96126.59;5051077;28;20045;-61
2023/03/04 09:59:02;;;;;;;82.82;67.88;;;;;;;4.56;78.28;96127.00;5041915;28;20112;-61
2023/03/04 10:01:35;;;;;;;77.90;68.03;;;;;;;4.64;79.28;96118.69;5042332;28;20491;-61
2023/03/04 10:04:13;;;;;;;81.70;63.67;;;;;;;4.81;78.18;96116.78;5043353;28;20461;-61
2023/03/04 10:06:40;;;;;;;70.57;60.33;;;;;;;4.88;77.08;96111.09;5044443;28;20483;-60
2023/03/04 10:09:18;;;;;;;76.63;62.80;;;;;;;4.81;76.57;96114.19;5022566;28;20036;-62
2023/03/04 10:12:00;;;;;;;74.45;61.00;;;;;;;4.87;75.89;96113.81;5044216;28;20028;-58
2023/03/04 10:14:57;;;;;;;76.55;62.13;;;;;;;4.97;75.91;96107.06;5048421;28;20033;-58
2023/03/04 10:17:33;;;;;;;74.93;60.22;;;;;;;4.98;75.81;96106.13;5037358;28;20033;-58
2023/03/04 10:20:25;;;;;;;67.70;53.85;;;;;;;5.08;74.91;96103.78;5043110;28;20056;-60
2023/03/04 10:22:58;;;;;;;66.70;53.83;;;;;;;5.15;73.85;96105.06;5046243;28;20021;-59
2023/03/04 10:25:24;;;;;;;63.92;51.25;;;;;;;5.16;73.32;96098.91;5048828;28;20513;-63
2023/03/04 10:27:49;;;;;;;64.05;56.13;;;;;;;5.34;72.80;96096.03;5041757;28;20032;-59
2023/03/04 10:30:29;;;;;;;71.22;54.22;;;;;;;5.47;72.23;96090.03;5040855;28;20025;-66
2023/03/04 10:32:54;;;;;;;69.15;55.20;;;;;;;5.52;71.14;96091.38;5043802;28;20029;-66
2023/03/04 10:35:25;;;;;;;62.58;52.28;;;;;;;5.58;71.44;96088.38;5037644;28;20031;-66
2023/03/04 10:37:50;;;;;;;69.90;56.15;;;;;;;5.61;70.92;96091.72;5041046;28;20051;-67
2023/03/04 10:40:22;;;;;;;73.45;60.20;;;;;;;5.66;71.58;96087.88;5046117;28;20052;-66
2023/03/04 10:42:49;;;;;;;68.75;56.92;;;;;;;5.70;71.21;96088.50;5044346;28;20021;-66
2023/03/04 10:45:29;;;;;;;69.88;57.85;;;;;;;5.74;70.97;96088.19;5047389;28;20103;-67
2023/03/04 10:47:55;;;;;;;78.93;60.13;;;;;;;5.78;70.96;96082.75;5048399;28;20033;-67
2023/03/04 10:50:23;;;;;;;67.78;56.58;;;;;;;5.69;70.36;96087.69;5043659;28;20013;-65
2023/03/04 10:52:51;;;;;;;70.65;59.20;;;;;;;5.85;69.34;96081.41;5045827;28;20032;-66
2023/03/04 10:55:41;;;;;;;70.20;57.72;;;;;;;5.96;69.06;96078.91;5042120;28;20434;-66
2023/03/04 10:58:14;;;;;;;72.35;59.92;;;;;;;5.92;68.60;96080.06;5043178;28;20671;-66
2023/03/04 11:00:39;;;;;;;69.93;57.67;;;;;;;5.98;67.38;96079.66;5039408;28;20369;-65
2023/03/04 11:03:30;;;;;;;74.38;62.25;;;;;;;6.19;67.22;96080.91;5044976;28;20043;-64
2023/03/04 11:06:13;;;;;;;70.72;56.60;;;;;;;6.11;65.62;96077.06;5046439;28;20016;-63
2023/03/04 11:08:40;;;;;;;75.05;59.90;;;;;;;6.10;66.04;96072.78;5043507;28;20099;-59
2023/03/04 11:11:24;;;;;;;71.60;57.28;;;;;;;6.29;66.00;96074.94;5040561;28;20093;-59
2023/03/04 11:13:56;;;;;;;72.30;58.13;;;;;;;6.33;66.24;96066.91;5044766;28;20083;-60
2023/03/04 11:16:33;;;;;;;71.97;57.13;;;;;;;6.37;65.05;96068.38;5041985;28;20548;-59
2023/03/04 11:19:09;;;;;;;70.32;55.25;;;;;;;6.38;65.04;96070.03;5045290;28;20040;-59
2023/03/04 11:21:39;;;;;;;64.95;53.42;;;;;;;6.30;65.71;96067.97;5046220;28;20021;-59
2023/03/04 11:24:13;;;;;;;66.32;52.72;;;;;;;6.26;62.76;96063.88;5042732;28;20033;-62